Time;durP1;ratioP1;P1;durP2;ratioP2;P2;SDS_P1;SDS_P2;PMS_P1;PMS_P2;Temp;Humidity;BMP_temperature;BMP_pressure;BME280_temperature;BME280_humidity;BME280_pressure;Samples;Min_cycle;Max_cycle;Signal;HPM_P1;HPM_P2
2023/10/01 00:00:15;;;;;;;14.17;3.60;;;10.60;99.90;;;;;;5009812;28;20426;-63
2023/10/01 00:02:41;;;;;;;22.40;4.77;;;10.60;99.90;;;;;;5016811;28;20822;-63
2023/10/01 00:05:08;;;;;;;6.27;2.93;;;10.60;99.90;;;;;;5009749;28;20907;-63
2023/10/01 00:07:37;;;;;;;9.27;3.83;;;10.60;99.90;;;;;;5023747;28;20473;-63
2023/10/01 00:10:12;;;;;;;9.33;4.10;;;10.60;99.90;;;;;;5010970;28;20502;-63
2023/10/01 00:12:39;;;;;;;9.70;4.20;;;11.30;99.90;;;;;;5022049;28;20404;-63
2023/10/01 00:15:06;;;;;;;16.37;4.60;;;10.70;99.90;;;;;;5010861;28;20747;-63
2023/10/01 00:17:32;;;;;;;15.70;3.73;;;10.70;99.90;;;;;;5016023;28;20515;-63
2023/10/01 00:20:00;;;;;;;16.00;3.60;;;10.70;99.90;;;;;;5011210;28;20856;-63
2023/10/01 00:22:26;;;;;;;7.80;4.43;;;10.60;99.90;;;;;;5013335;28;20179;-63
2023/10/01 00:24:52;;;;;;;11.70;4.40;;;10.70;99.90;;;;;;5010283;28;20431;-63
2023/10/01 00:27:17;;;;;;;7.77;2.97;;;11.80;99.90;;;;;;5020091;28;20209;-63
2023/10/01 00:29:43;;;;;;;8.83;3.20;;;11.00;99.90;;;;;;5016988;28;20183;-64
2023/10/01 00:32:08;;;;;;;5.80;3.40;;;10.50;99.90;;;;;;5017620;28;20218;-63
2023/10/01 00:34:34;;;;;;;8.13;3.10;;;10.40;99.90;;;;;;5017314;28;20629;-63
2023/10/01 00:37:00;;;;;;;12.00;3.93;;;10.30;99.90;;;;;;5019391;28;20642;-63
2023/10/01 00:39:25;;;;;;;9.93;4.00;;;10.30;99.90;;;;;;5020164;28;20179;-63
2023/10/01 00:41:52;;;;;;;6.73;3.50;;;10.30;99.90;;;;;;5018250;28;20194;-63
2023/10/01 00:44:18;;;;;;;12.30;4.57;;;10.30;99.90;;;;;;5020544;28;20206;-63
2023/10/01 00:46:43;;;;;;;27.30;4.53;;;10.20;99.90;;;;;;5023781;28;20948;-63
2023/10/01 00:49:09;;;;;;;10.10;3.50;;;11.00;99.90;;;;;;5021347;28;20179;-63
2023/10/01 00:51:35;;;;;;;10.00;4.00;;;10.20;99.90;;;;;;5022703;28;20171;-63
2023/10/01 00:54:02;;;;;;;13.43;4.17;;;10.10;99.90;;;;;;5017562;28;20625;-63
2023/10/01 00:56:28;;;;;;;7.03;3.40;;;10.00;99.90;;;;;;5017196;28;20459;-63
2023/10/01 00:58:54;;;;;;;3.90;2.70;;;9.90;99.90;;;;;;5002240;28;20430;-63
2023/10/01 01:01:25;;;;;;;6.97;3.43;;;10.30;99.90;;;;;;5013821;28;20424;-63
2023/10/01 01:03:52;;;;;;;6.70;3.70;;;9.70;99.90;;;;;;5027728;28;20275;-63
2023/10/01 01:06:23;;;;;;;7.20;4.43;;;9.70;99.90;;;;;;5011865;28;20895;-63
2023/10/01 01:08:54;;;;;;;9.90;3.80;;;9.80;99.90;;;;;;5026351;28;20856;-63
2023/10/01 01:11:21;;;;;;;10.87;3.33;;;11.40;99.90;;;;;;5008116;28;20415;-63
2023/10/01 01:13:50;;;;;;;8.17;3.67;;;9.90;99.90;;;;;;5005524;28;20421;-63
2023/10/01 01:16:19;;;;;;;8.90;3.47;;;9.90;99.90;;;;;;5015716;28;20438;-63
2023/10/01 01:18:46;;;;;;;10.27;3.97;;;11.20;99.90;;;;;;5021693;28;20883;-63
2023/10/01 01:21:13;;;;;;;15.13;4.27;;;9.90;99.90;;;;;;5017338;28;20423;-63
2023/10/01 01:23:45;;;;;;;8.93;3.40;;;11.30;99.90;;;;;;5021360;28;20421;-63
2023/10/01 01:26:13;;;;;;;6.47;3.43;;;9.90;99.90;;;;;;5016091;28;20549;-63
2023/10/01 01:28:41;;;;;;;9.93;3.40;;;9.90;99.90;;;;;;5022210;28;20424;-63
2023/10/01 01:31:08;;;;;;;8.13;4.20;;;9.80;99.90;;;;;;5016772;28;20426;-63
2023/10/01 01:33:40;;;;;;;6.23;3.23;;;9.80;99.90;;;;;;5021428;28;20413;-63
2023/10/01 01:36:09;;;;;;;7.30;3.13;;;9.80;99.90;;;;;;5015089;28;20429;-63
2023/10/01 01:38:37;;;;;;;9.90;4.43;;;9.90;99.90;;;;;;5026376;28;20436;-63
2023/10/01 01:41:03;;;;;;;10.10;3.30;;;9.80;99.90;;;;;;5015235;28;20413;-62
2023/10/01 01:43:38;;;;;;;9.80;4.03;;;11.20;99.90;;;;;;5027191;28;20467;-63
2023/10/01 01:46:08;;;;;;;6.50;3.57;;;9.70;99.90;;;;;;5014752;28;20407;-63
2023/10/01 01:48:37;;;;;;;14.63;4.17;;;9.70;99.90;;;;;;5024628;28;20421;-63
2023/10/01 01:51:04;;;;;;;6.43;3.33;;;9.60;99.90;;;;;;5010634;28;20418;-63
2023/10/01 01:53:41;;;;;;;6.33;3.50;;;9.60;99.90;;;;;;5024303;28;20806;-63
2023/10/01 01:56:09;;;;;;;8.90;3.80;;;9.70;99.90;;;;;;5012616;28;20460;-63
2023/10/01 01:58:35;;;;;;;8.83;3.57;;;9.70;99.90;;;;;;5022690;28;21179;-63
2023/10/01 02:01:08;;;;;;;6.40;3.03;;;9.70;99.90;;;;;;5007819;28;20426;-63
2023/10/01 02:03:38;;;;;;;9.23;4.30;;;9.60;99.90;;;;;;5019033;28;20409;-63
2023/10/01 02:06:08;;;;;;;7.50;3.87;;;9.70;99.90;;;;;;5010719;28;20418;-63
2023/10/01 02:08:49;;;;;;;9.50;3.60;;;9.60;99.90;;;;;;5028785;28;20416;-63
2023/10/01 02:11:16;;;;;;;5.70;3.10;;;9.60;99.90;;;;;;5009626;28;20415;-63
2023/10/01 02:13:45;;;;;;;8.23;3.70;;;9.80;99.90;;;;;;5025870;28;20765;-63
2023/10/01 02:19:21;;;;;;;12.40;3.90;;;9.30;99.90;;;;;;5021168;28;20521;-63
2023/10/01 02:22:00;;;;;;;6.93;3.03;;;9.30;99.90;;;;;;5018877;28;20889;-63
2023/10/01 02:27:12;;;;;;;8.40;3.63;;;9.40;99.90;;;;;;5018032;28;21126;-63
2023/10/01 02:32:23;;;;;;;9.67;3.70;;;9.40;99.90;;;;;;5020287;28;20417;-63
2023/10/01 02:34:48;;;;;;;8.90;3.90;;;9.40;99.90;;;;;;5015247;28;20521;-63
2023/10/01 02:37:25;;;;;;;7.37;2.90;;;9.40;99.90;;;;;;5018432;28;20430;-63
2023/10/01 02:39:51;;;;;;;8.37;3.23;;;9.30;99.90;;;;;;5014091;28;20524;-63
2023/10/01 02:42:22;;;;;;;10.20;3.10;;;9.30;99.90;;;;;;5026186;28;20430;-63
2023/10/01 02:44:48;;;;;;;8.70;3.53;;;9.30;99.90;;;;;;5014584;28;20171;-63
2023/10/01 02:47:18;;;;;;;12.80;4.40;;;10.50;99.90;;;;;;5025230;28;20464;-63
2023/10/01 02:49:49;;;;;;;8.87;4.70;;;9.30;99.90;;;;;;5012303;28;20760;-63
2023/10/01 02:52:21;;;;;;;11.23;4.43;;;9.30;99.90;;;;;;5024582;28;20428;-63
2023/10/01 02:54:53;;;;;;;15.90;4.10;;;9.40;99.90;;;;;;5005634;28;20430;-63
2023/10/01 02:57:26;;;;;;;7.03;3.27;;;9.20;99.90;;;;;;5023262;28;20889;-63
2023/10/01 03:00:20;;;;;;;;;;;;;;;;;;;;;
2023/10/01 03:02:38;;;;;;;12.90;4.67;;;9.50;99.90;;;;;;5017379;28;20905;-63
2023/10/01 03:05:07;;;;;;;9.90;3.17;;;9.50;99.90;;;;;;5015344;28;20429;-63
2023/10/01 03:07:40;;;;;;;8.57;4.70;;;9.50;99.90;;;;;;5023373;28;20469;-63
2023/10/01 03:10:28;;;;;;;10.00;3.97;;;9.40;99.90;;;;;;5019060;28;20442;-63
2023/10/01 03:12:59;;;;;;;8.50;4.20;;;9.40;99.90;;;;;;5024517;28;20417;-63
2023/10/01 03:15:35;;;;;;;10.53;4.57;;;9.40;99.90;;;;;;5016254;28;20429;-63
2023/10/01 03:18:08;;;;;;;10.43;3.53;;;9.30;99.90;;;;;;5024069;28;20964;-63
2023/10/01 03:23:05;;;;;;;6.87;2.83;;;;;;;;;;5020010;28;20453;-63
2023/10/01 03:26:07;;;;;;;17.47;4.70;;;;;;;;;;5016826;28;20500;-63
2023/10/01 03:29:14;;;;;;;7.27;3.23;;;9.50;99.90;;;;;;5019286;28;20448;-63
2023/10/01 03:31:21;;;;;;;14.73;4.63;;;9.40;99.90;;;;;;5010788;28;20439;-63
2023/10/01 03:33:53;;;;;;;13.93;4.80;;;;;;;;;;5009548;28;20541;-63
2023/10/01 03:36:25;;;;;;;8.97;4.23;;;9.40;99.90;;;;;;5025578;23;20535;-63
2023/10/01 03:38:57;;;;;;;7.50;3.63;;;9.40;99.90;;;;;;5019959;28;20432;-63
2023/10/01 03:41:24;;;;;;;11.23;3.63;;;9.40;99.90;;;;;;5022031;28;20426;-63
2023/10/01 03:44:08;;;;;;;6.77;3.20;;;9.40;99.90;;;;;;5014999;28;20428;-63
2023/10/01 03:46:45;;;;;;;6.90;3.40;;;9.40;99.90;;;;;;5020370;28;20541;-63
2023/10/01 03:52:00;;;;;;;11.33;3.47;;;9.30;99.90;;;;;;5018245;28;20528;-63
2023/10/01 03:54:52;;;;;;;10.80;4.03;;;9.40;99.90;;;;;;5021395;28;20429;-63
2023/10/01 03:57:19;;;;;;;11.80;4.80;;;9.40;99.90;;;;;;5014946;28;20779;-63
2023/10/01 03:59:52;;;;;;;14.23;5.00;;;9.40;99.90;;;;;;5024331;28;20436;-63
2023/10/01 04:05:21;;;;;;;9.40;4.53;;;9.30;99.90;;;;;;5021614;28;20920;-63
2023/10/01 04:07:50;;;;;;;6.17;3.17;;;9.20;99.90;;;;;;5014986;28;20865;-63
2023/10/01 04:12:54;;;;;;;9.53;4.17;;;9.30;99.90;;;;;;5021804;28;20418;-63
2023/10/01 04:15:29;;;;;;;12.60;3.87;;;9.30;99.90;;;;;;5025628;28;20429;-63
2023/10/01 04:23:31;;;;;;;10.93;4.00;;;9.10;99.90;;;;;;5021592;28;20433;-63
2023/10/01 04:26:00;;;;;;;9.73;3.83;;;9.00;99.90;;;;;;5027403;28;20570;-63
2023/10/01 04:28:27;;;;;;;8.70;3.80;;;9.10;99.90;;;;;;5020803;28;20863;-63
2023/10/01 04:30:52;;;;;;;9.90;4.50;;;9.10;99.90;;;;;;5026320;28;20426;-63
2023/10/01 04:33:23;;;;;;;9.50;4.33;;;9.10;99.90;;;;;;5024021;28;21046;-63
2023/10/01 04:35:55;;;;;;;9.40;3.73;;;9.10;99.90;;;;;;5026212;28;20611;-63
2023/10/01 04:38:32;;;;;;;8.37;4.17;;;9.20;99.90;;;;;;5024749;28;20453;-63
2023/10/01 04:41:07;;;;;;;9.37;3.80;;;9.30;99.90;;;;;;5025686;28;20424;-63
2023/10/01 04:43:36;;;;;;;11.67;4.50;;;9.30;99.90;;;;;;5017738;28;20819;-63
2023/10/01 04:46:04;;;;;;;7.50;3.37;;;9.40;99.90;;;;;;5025363;28;20445;-63
2023/10/01 04:48:29;;;;;;;13.13;4.30;;;9.40;99.90;;;;;;5013273;28;20451;-63
2023/10/01 04:50:55;;;;;;;10.77;3.97;;;9.40;99.90;;;;;;5020326;28;20410;-63
2023/10/01 04:53:22;;;;;;;9.83;4.40;;;9.40;99.90;;;;;;5019466;28;20265;-63
2023/10/01 04:56:00;;;;;;;10.37;3.27;;;9.30;99.90;;;;;;5024148;28;20188;-63
2023/10/01 04:58:29;;;;;;;9.93;3.93;;;9.30;99.90;;;;;;5015033;28;20560;-63
2023/10/01 05:00:55;;;;;;;7.40;3.90;;;9.30;99.90;;;;;;5026053;28;20937;-63
2023/10/01 05:03:38;;;;;;;9.70;4.17;;;9.30;99.90;;;;;;5014121;28;20794;-63
2023/10/01 05:06:14;;;;;;;11.77;3.90;;;9.30;99.90;;;;;;5026164;28;20917;-63
2023/10/01 05:08:43;;;;;;;14.40;6.07;;;9.30;99.90;;;;;;5013766;28;20414;-63
2023/10/01 05:11:11;;;;;;;9.50;3.73;;;9.20;99.90;;;;;;5024790;28;20429;-63
2023/10/01 05:13:39;;;;;;;10.20;4.67;;;9.30;99.90;;;;;;5013572;28;20418;-63
2023/10/01 05:16:06;;;;;;;7.37;3.90;;;9.30;99.90;;;;;;5021284;28;20425;-64
2023/10/01 05:18:33;;;;;;;14.10;3.67;;;9.20;99.90;;;;;;5012424;28;20473;-63
2023/10/01 05:20:59;;;;;;;24.40;4.20;;;9.20;99.90;;;;;;5020758;28;20408;-63
2023/10/01 05:23:29;;;;;;;9.13;3.53;;;9.10;99.90;;;;;;5013307;28;20425;-63
2023/10/01 05:25:56;;;;;;;7.57;4.30;;;9.10;99.90;;;;;;5017901;28;20430;-63
2023/10/01 05:28:36;;;;;;;12.87;4.53;;;9.10;99.90;;;;;;5013553;28;20547;-63
2023/10/01 05:31:07;;;;;;;10.80;5.07;;;9.20;99.90;;;;;;5016671;28;20417;-63
2023/10/01 05:33:33;;;;;;;10.40;4.10;;;9.80;99.90;;;;;;5019858;28;20425;-64
2023/10/01 05:36:04;;;;;;;9.80;5.27;;;9.30;99.90;;;;;;5021933;28;20410;-63
2023/10/01 05:38:34;;;;;;;13.87;4.80;;;9.40;99.90;;;;;;5013299;28;20566;-64
2023/10/01 05:41:09;;;;;;;14.77;5.60;;;9.50;99.90;;;;;;5019456;28;20413;-63
2023/10/01 05:43:37;;;;;;;15.73;5.20;;;9.60;99.90;;;;;;5012683;28;20516;-63
2023/10/01 05:46:08;;;;;;;9.30;4.20;;;9.60;99.90;;;;;;5018451;28;20422;-64
2023/10/01 05:48:39;;;;;;;8.53;3.87;;;9.70;99.90;;;;;;5012371;28;20512;-63
2023/10/01 05:51:30;;;;;;;20.63;4.30;;;9.80;99.90;;;;;;5020492;28;20430;-64
2023/10/01 05:53:56;;;;;;;17.10;4.40;;;9.80;99.90;;;;;;5019818;28;20428;-64
2023/10/01 05:56:24;;;;;;;10.30;3.87;;;9.80;99.90;;;;;;5019499;28;20905;-63
2023/10/01 05:58:50;;;;;;;13.20;4.30;;;9.90;99.90;;;;;;5014503;28;20431;-64
2023/10/01 06:01:17;;;;;;;10.67;3.93;;;9.90;99.90;;;;;;5022621;28;20737;-63
2023/10/01 06:03:45;;;;;;;13.00;5.00;;;12.30;99.90;;;;;;5013595;28;20895;-63
2023/10/01 06:06:14;;;;;;;9.90;5.33;;;11.50;99.90;;;;;;5018979;28;20500;-63
2023/10/01 06:08:49;;;;;;;12.90;5.90;;;11.20;99.90;;;;;;5011859;28;20442;-63
2023/10/01 06:11:38;;;;;;;8.53;4.13;;;9.90;99.90;;;;;;5019180;28;20405;-63
2023/10/01 06:14:04;;;;;;;17.30;4.90;;;9.90;99.90;;;;;;5014491;28;21024;-63
2023/10/01 06:16:30;;;;;;;10.03;5.20;;;9.90;99.90;;;;;;5018765;28;20418;-63
2023/10/01 06:18:57;;;;;;;15.10;5.30;;;10.00;99.90;;;;;;5013284;28;20421;-64
2023/10/01 06:21:28;;;;;;;15.23;5.50;;;9.90;99.90;;;;;;5018145;28;20282;-63
2023/10/01 06:23:58;;;;;;;15.87;5.10;;;10.30;99.90;;;;;;5015966;28;21182;-63
2023/10/01 06:26:29;;;;;;;8.60;4.70;;;10.40;99.90;;;;;;5016819;28;20825;-63
2023/10/01 06:28:55;;;;;;;14.70;5.60;;;10.50;99.90;;;;;;5013196;28;20421;-63
2023/10/01 06:31:21;;;;;;;12.40;4.60;;;10.50;99.90;;;;;;5015375;28;20897;-63
2023/10/01 06:33:50;;;;;;;11.90;5.37;;;10.50;99.90;;;;;;5012450;28;20442;-63
2023/10/01 06:36:23;;;;;;;11.23;5.33;;;;;;;;;;5019226;28;20286;-63
2023/10/01 06:38:53;;;;;;;12.23;4.80;;;10.60;99.90;;;;;;5012572;28;20887;-63
2023/10/01 06:41:19;;;;;;;22.43;4.83;;;;;;;;;;5017854;28;20527;-63
2023/10/01 06:43:49;;;;;;;10.40;4.30;;;;;;;;;;5010976;28;20737;-63
2023/10/01 06:46:15;;;;;;;11.80;5.40;;;;;;;;;;5017287;28;20537;-63
2023/10/01 06:48:42;;;;;;;13.10;4.80;;;10.90;99.90;;;;;;5011129;28;20899;-63
2023/10/01 06:51:08;;;;;;;12.10;4.03;;;11.40;99.90;;;;;;5017163;28;20422;-63
2023/10/01 06:53:47;;;;;;;14.07;5.40;;;11.10;99.90;;;;;;5016911;28;20429;-63
2023/10/01 06:56:19;;;;;;;10.80;5.30;;;11.20;99.90;;;;;;5019034;28;20425;-63
2023/10/01 07:01:49;;;;;;;10.10;4.97;;;11.40;99.90;;;;;;4978679;28;20420;-63
2023/10/01 07:04:19;;;;;;;12.33;4.97;;;;;;;;;;5005239;28;20433;-63
2023/10/01 07:06:46;;;;;;;22.20;4.73;;;;;;;;;;5017288;28;20454;-64
2023/10/01 07:09:27;;;;;;;11.53;4.77;;;12.10;99.90;;;;;;5011310;28;20428;-64
2023/10/01 07:12:03;;;;;;;9.20;4.40;;;;;;;;;;5017735;28;20405;-64
2023/10/01 07:14:43;;;;;;;9.93;4.87;;;12.60;99.90;;;;;;5013626;28;20410;-64
2023/10/01 07:17:14;;;;;;;9.57;5.00;;;12.60;99.90;;;;;;5013104;28;20862;-64
2023/10/01 07:19:43;;;;;;;12.00;4.00;;;12.70;99.90;;;;;;5013493;28;20464;-64
2023/10/01 07:22:15;;;;;;;12.10;5.00;;;13.00;99.90;;;;;;5014361;28;20414;-64
2023/10/01 07:24:44;;;;;;;8.83;3.97;;;13.30;99.90;;;;;;5013505;28;20512;-64
2023/10/01 07:27:11;;;;;;;8.07;4.20;;;13.60;99.90;;;;;;5016163;28;20589;-64
2023/10/01 07:29:44;;;;;;;15.33;3.83;;;;;;;;;;5013241;28;20418;-64
2023/10/01 07:32:14;;;;;;;17.33;4.97;;;14.40;99.90;;;;;;5015450;28;20402;-64
2023/10/01 07:34:42;;;;;;;11.90;4.07;;;14.90;99.90;;;;;;5013435;28;20472;-64
2023/10/01 07:37:23;;;;;;;12.13;4.10;;;15.30;99.90;;;;;;4976156;28;1106023;-64
2023/10/01 07:39:56;;;;;;;8.33;4.40;;;15.80;99.90;;;;;;5015328;28;20214;-64
2023/10/01 07:42:28;;;;;;;9.73;4.33;;;16.20;99.90;;;;;;5014671;28;20792;-64
2023/10/01 07:44:56;;;;;;;18.97;4.33;;;16.50;99.90;;;;;;5018891;28;20432;-64
2023/10/01 07:47:28;;;;;;;12.83;4.83;;;17.20;99.90;;;;;;5017426;28;20469;-64
2023/10/01 07:50:11;;;;;;;12.37;5.00;;;17.80;99.90;;;;;;5027556;28;20420;-64
2023/10/01 07:52:36;;;;;;;13.23;4.00;;;18.50;99.90;;;;;;5019250;28;20818;-64
2023/10/01 07:55:29;;;;;;;18.13;4.53;;;18.70;99.90;;;;;;5023765;28;20481;-64
2023/10/01 07:57:49;;;;;;;14.40;4.13;;;18.80;99.90;;;;;;5024740;28;20186;-64
2023/10/01 08:00:28;;;;;;;9.77;3.17;;;18.90;99.90;;;;;;5022782;28;20443;-64
2023/10/01 08:03:55;;;;;;;11.43;4.23;;;19.00;99.90;;;;;;5014848;28;20429;-64
2023/10/01 08:05:49;;;;;;;14.20;4.07;;;19.10;99.90;;;;;;5009203;28;20457;-64
2023/10/01 08:08:27;;;;;;;11.03;4.10;;;19.10;99.90;;;;;;5015574;28;20505;-64
2023/10/01 08:10:54;;;;;;;10.40;4.57;;;19.50;99.90;;;;;;5022610;28;20198;-64
2023/10/01 08:13:27;;;;;;;6.17;3.10;;;;;;;;;;5015459;28;20460;-64
2023/10/01 08:16:01;;;;;;;12.50;4.60;;;19.50;99.90;;;;;;5021775;28;20414;-64
2023/10/01 08:18:39;;;;;;;13.00;4.03;;;19.40;99.90;;;;;;5014109;28;20436;-64
2023/10/01 08:21:15;;;;;;;14.30;4.53;;;19.50;99.90;;;;;;5022077;28;20467;-64
2023/10/01 08:23:54;;;;;;;11.00;4.87;;;19.60;99.90;;;;;;5017699;28;20439;-64
2023/10/01 08:29:06;;;;;;;12.47;6.00;;;19.80;99.70;;;;;;5017008;28;20440;-64
2023/10/01 08:35:01;;;;;;;12.17;4.13;;;20.00;99.70;;;;;;5016709;28;20425;-64
2023/10/01 08:37:09;;;;;;;13.80;4.10;;;20.40;99.20;;;;;;5026511;28;20433;-64
2023/10/01 08:39:35;;;;;;;9.70;4.90;;;20.00;99.30;;;;;;5018438;28;20925;-64
2023/10/01 08:42:10;;;;;;;9.40;3.70;;;20.10;99.20;;;;;;5020410;28;20433;-64
2023/10/01 08:44:54;;;;;;;9.67;3.73;;;20.20;98.10;;;;;;5015972;28;20421;-64
2023/10/01 08:47:35;;;;;;;12.83;3.93;;;20.30;99.00;;;;;;5016343;28;20464;-64
2023/10/01 08:52:52;;;;;;;11.47;3.93;;;19.80;98.60;;;;;;5020178;28;20455;-64
2023/10/01 08:56:04;;;;;;;11.63;3.90;;;20.10;98.20;;;;;;5020104;28;20425;-64
2023/10/01 08:58:27;;;;;;;;;;;;;;;;;;;;;
2023/10/01 09:01:10;;;;;;;11.07;4.10;;;20.60;97.00;;;;;;5020133;28;20429;-63
2023/10/01 09:03:36;;;;;;;10.07;3.27;;;20.70;96.80;;;;;;5013563;28;20421;-63
2023/10/01 09:06:03;;;;;;;11.83;4.40;;;21.10;95.80;;;;;;5020441;28;20487;-63
2023/10/01 09:08:45;;;;;;;8.10;3.60;;;21.30;95.90;;;;;;5021530;28;20887;-63
2023/10/01 09:11:16;;;;;;;8.77;3.60;;;21.60;95.00;;;;;;5017870;28;20805;-63
2023/10/01 09:13:58;;;;;;;9.97;4.43;;;21.70;94.50;;;;;;5013588;28;20418;-63
2023/10/01 09:16:31;;;;;;;13.43;4.33;;;22.10;94.70;;;;;;5022189;28;20420;-63
2023/10/01 09:19:03;;;;;;;9.27;3.97;;;21.90;95.00;;;;;;5016068;28;20491;-63
2023/10/01 09:21:31;;;;;;;15.07;4.87;;;22.10;95.10;;;;;;5019137;28;20472;-63
2023/10/01 09:24:12;;;;;;;16.17;5.20;;;22.60;93.30;;;;;;5014920;28;20449;-63
2023/10/01 09:26:42;;;;;;;8.47;3.60;;;22.40;94.10;;;;;;5018900;28;20464;-63
2023/10/01 09:29:22;;;;;;;11.03;3.93;;;22.00;94.50;;;;;;5014674;28;20940;-63
2023/10/01 09:31:52;;;;;;;10.83;4.80;;;21.60;94.80;;;;;;5021500;28;20423;-63
2023/10/01 09:34:31;;;;;;;9.43;3.40;;;21.30;94.40;;;;;;5016169;28;20516;-63
2023/10/01 09:37:12;;;;;;;9.80;3.60;;;21.00;94.90;;;;;;5020181;28;20748;-63
2023/10/01 09:39:41;;;;;;;12.97;4.67;;;20.60;95.80;;;;;;5014971;28;20552;-63
2023/10/01 09:42:22;;;;;;;8.90;3.40;;;20.20;96.60;;;;;;5018331;28;20787;-63
2023/10/01 09:44:50;;;;;;;10.63;4.40;;;20.20;96.90;;;;;;5016845;28;20426;-63
2023/10/01 09:47:17;;;;;;;14.80;4.67;;;20.10;97.10;;;;;;5015348;28;20548;-63
2023/10/01 09:49:47;;;;;;;12.10;4.40;;;20.10;96.50;;;;;;5019721;28;20425;-65
2023/10/01 09:52:26;;;;;;;8.93;3.87;;;20.10;97.00;;;;;;5015044;28;20414;-65
2023/10/01 09:55:01;;;;;;;14.10;4.37;;;20.20;96.60;;;;;;5016623;28;20414;-65
2023/10/01 09:57:32;;;;;;;9.60;3.70;;;20.20;96.40;;;;;;5018951;28;20410;-65
2023/10/01 10:00:17;;;;;;;10.67;4.10;;;20.20;96.50;;;;;;5020304;28;20505;-65
2023/10/01 10:02:51;;;;;;;19.17;4.47;;;20.30;96.70;;;;;;5018281;28;20472;-65
2023/10/01 10:05:25;;;;;;;11.80;4.70;;;20.30;96.60;;;;;;5017900;28;20490;-65
2023/10/01 10:07:56;;;;;;;7.73;3.83;;;20.40;96.20;;;;;;5016401;28;21026;-65
2023/10/01 10:10:26;;;;;;;24.37;4.17;;;20.50;95.70;;;;;;5017746;28;20421;-65
2023/10/01 10:12:56;;;;;;;11.20;4.07;;;20.50;96.10;;;;;;5015925;28;21116;-65
2023/10/01 10:15:56;;;;;;;13.97;5.27;;;20.60;96.20;;;;;;5016807;28;20510;-65
2023/10/01 10:18:23;;;;;;;11.27;4.60;;;20.60;95.70;;;;;;5011598;28;20996;-65
2023/10/01 10:21:03;;;;;;;11.63;5.03;;;20.60;95.80;;;;;;5017260;28;20425;-65
2023/10/01 10:23:29;;;;;;;17.03;4.20;;;20.70;96.20;;;;;;5012346;28;20453;-65
2023/10/01 10:26:13;;;;;;;10.60;4.40;;;20.80;95.60;;;;;;5016945;28;20464;-65
2023/10/01 10:28:55;;;;;;;19.33;5.23;;;20.90;95.10;;;;;;5018403;28;20175;-65
2023/10/01 10:31:32;;;;;;;14.70;4.63;;;20.80;95.90;;;;;;5019603;28;20751;-65
2023/10/01 10:34:21;;;;;;;8.73;4.07;;;20.80;95.60;;;;;;5012787;28;20432;-65
2023/10/01 10:36:51;;;;;;;11.93;4.10;;;21.00;95.50;;;;;;5022727;28;20441;-65
2023/10/01 10:39:50;;;;;;;15.40;5.63;;;21.10;94.90;;;;;;5019512;28;20430;-65
2023/10/01 10:42:29;;;;;;;11.60;4.77;;;21.30;94.70;;;;;;5019709;28;20421;-65
2023/10/01 10:45:19;;;;;;;10.20;3.83;;;21.30;94.80;;;;;;5021489;28;20424;-65
2023/10/01 10:50:44;;;;;;;9.97;4.00;;;21.50;94.30;;;;;;5017791;28;20804;-65
2023/10/01 10:53:22;;;;;;;18.33;6.50;;;21.60;93.50;;;;;;5017646;28;20428;-65
2023/10/01 10:55:52;;;;;;;18.83;5.40;;;21.80;94.40;;;;;;5018753;28;20417;-65
2023/10/01 10:58:19;;;;;;;13.47;5.10;;;21.90;94.00;;;;;;5014563;28;20511;-65
2023/10/01 11:00:48;;;;;;;12.40;4.53;;;22.00;94.00;;;;;;5017381;28;20425;-65
2023/10/01 11:03:16;;;;;;;8.13;3.80;;;22.10;94.50;;;;;;5013513;28;20475;-65
2023/10/01 11:05:51;;;;;;;10.87;4.57;;;22.30;92.50;;;;;;5017964;28;20418;-65
2023/10/01 11:08:26;;;;;;;13.10;5.13;;;22.40;92.40;;;;;;5012714;28;20464;-65
2023/10/01 11:10:57;;;;;;;12.13;4.80;;;22.60;91.60;;;;;;5018586;28;20429;-65
2023/10/01 11:13:38;;;;;;;13.50;4.40;;;22.80;90.60;;;;;;5012195;28;20421;-63
2023/10/01 11:16:14;;;;;;;8.60;3.33;;;22.80;90.00;;;;;;5020431;28;20409;-63
2023/10/01 11:18:47;;;;;;;14.80;4.57;;;22.60;90.70;;;;;;5014155;28;20425;-63
2023/10/01 11:21:31;;;;;;;13.07;4.40;;;22.70;90.70;;;;;;5018019;28;20421;-63
2023/10/01 11:24:00;;;;;;;12.33;3.67;;;22.80;90.80;;;;;;5015063;28;20636;-63
2023/10/01 11:26:26;;;;;;;16.40;4.80;;;23.00;91.50;;;;;;5016234;28;20497;-63
2023/10/01 11:28:53;;;;;;;12.07;5.27;;;23.30;89.30;;;;;;5011890;28;20516;-63
2023/10/01 11:31:25;;;;;;;16.80;5.40;;;23.30;90.20;;;;;;5015951;28;20308;-63
2023/10/01 11:34:21;;;;;;;13.47;5.73;;;23.40;90.10;;;;;;5012353;28;20439;-63
2023/10/01 11:36:56;;;;;;;21.70;5.20;;;23.20;90.10;;;;;;5014190;28;20449;-63
2023/10/01 11:39:49;;;;;;;15.40;5.07;;;23.20;89.60;;;;;;5013278;28;20428;-62
2023/10/01 11:42:26;;;;;;;11.53;4.70;;;23.20;88.90;;;;;;5014224;28;20412;-62
2023/10/01 11:44:52;;;;;;;13.47;5.60;;;23.20;88.90;;;;;;5017518;28;20428;-62
2023/10/01 11:47:34;;;;;;;18.77;4.27;;;23.10;89.90;;;;;;5014644;28;20503;-62
2023/10/01 11:50:09;;;;;;;11.93;5.00;;;23.10;89.20;;;;;;5023542;28;20421;-63
2023/10/01 11:52:36;;;;;;;13.70;4.93;;;23.20;90.30;;;;;;5014802;28;20452;-63
2023/10/01 11:55:19;;;;;;;15.70;5.70;;;23.40;89.00;;;;;;5020956;28;20421;-62
2023/10/01 11:57:51;;;;;;;15.33;5.27;;;23.40;89.30;;;;;;5015184;28;20421;-62
2023/10/01 12:00:32;;;;;;;18.03;6.00;;;23.50;89.70;;;;;;5018105;28;20490;-63
2023/10/01 12:02:58;;;;;;;10.60;4.70;;;23.60;89.70;;;;;;5021840;28;20404;-62
2023/10/01 12:05:38;;;;;;;13.53;5.70;;;23.70;90.00;;;;;;5020997;28;20781;-63
2023/10/01 12:08:09;;;;;;;14.67;4.33;;;23.60;89.40;;;;;;5011529;28;20557;-63
2023/10/01 12:10:36;;;;;;;14.47;4.87;;;23.70;89.40;;;;;;5016487;28;20427;-62
2023/10/01 12:13:07;;;;;;;15.60;5.40;;;23.90;86.50;;;;;;5016034;28;20413;-62
2023/10/01 12:15:36;;;;;;;12.87;5.30;;;23.90;87.90;;;;;;5016629;28;20824;-63
2023/10/01 12:18:34;;;;;;;19.80;5.27;;;24.20;86.20;;;;;;5014242;28;20815;-63
2023/10/01 12:20:55;;;;;;;17.50;5.63;;;24.30;85.40;;;;;;5016982;28;20533;-63
2023/10/01 12:23:22;;;;;;;10.17;4.67;;;24.10;84.10;;;;;;5011770;28;20431;-63
2023/10/01 12:28:28;;;;;;;15.97;4.90;;;23.80;86.10;;;;;;5017838;28;20461;-63
2023/10/01 12:30:58;;;;;;;18.10;5.30;;;23.70;86.30;;;;;;5018120;28;20429;-63
2023/10/01 12:33:25;;;;;;;10.33;4.40;;;23.90;85.50;;;;;;5014781;28;20447;-63
2023/10/01 12:35:53;;;;;;;16.47;5.67;;;23.80;86.50;;;;;;5017923;28;20449;-63
2023/10/01 12:40:52;;;;;;;17.30;4.17;;;24.00;84.90;;;;;;5018130;28;20439;-63
2023/10/01 12:43:36;;;;;;;11.47;4.87;;;24.20;83.60;;;;;;5015495;28;20240;-63
2023/10/01 12:46:08;;;;;;;22.90;4.97;;;24.10;83.60;;;;;;5022793;28;20527;-63
2023/10/01 12:48:34;;;;;;;12.23;4.00;;;24.10;83.80;;;;;;5013197;28;20934;-63
2023/10/01 12:51:00;;;;;;;14.30;5.47;;;24.20;85.00;;;;;;5023184;28;20814;-63
2023/10/01 12:53:34;;;;;;;13.80;4.63;;;24.40;84.70;;;;;;5020014;28;20440;-63
2023/10/01 12:56:02;;;;;;;16.97;5.03;;;24.50;85.10;;;;;;5022577;28;20196;-63
2023/10/01 12:58:39;;;;;;;11.13;4.40;;;24.70;82.90;;;;;;5015308;28;20425;-63
2023/10/01 13:01:51;;;;;;;11.30;4.50;;;24.70;82.30;;;;;;5021775;28;20519;-63
2023/10/01 13:04:21;;;;;;;14.13;4.57;;;24.90;82.40;;;;;;5010245;28;20460;-63
2023/10/01 13:06:47;;;;;;;10.23;4.40;;;24.90;84.00;;;;;;5016833;28;20461;-63
2023/10/01 13:11:59;;;;;;;10.63;4.70;;;24.60;83.40;;;;;;5023128;28;20775;-63
2023/10/01 13:14:29;;;;;;;10.90;3.97;;;24.60;80.00;;;;;;5016309;28;20422;-63
2023/10/01 13:17:00;;;;;;;10.57;4.23;;;24.50;79.90;;;;;;5022270;28;20441;-63
2023/10/01 13:19:33;;;;;;;14.17;4.00;;;24.40;79.10;;;;;;5018369;28;20837;-62
2023/10/01 13:22:04;;;;;;;12.63;4.67;;;24.20;80.90;;;;;;5022028;28;20412;-63
2023/10/01 13:24:31;;;;;;;10.20;4.20;;;24.20;81.20;;;;;;5018116;28;20479;-63
2023/10/01 13:27:10;;;;;;;14.73;3.93;;;24.30;80.90;;;;;;5020631;28;20465;-63
2023/10/01 13:29:37;;;;;;;15.17;5.00;;;24.20;79.80;;;;;;5016359;28;20428;-63
2023/10/01 13:32:03;;;;;;;8.70;4.60;;;24.20;81.10;;;;;;5020338;28;20486;-63
2023/10/01 13:34:48;;;;;;;16.87;5.27;;;24.10;82.70;;;;;;5014571;28;20514;-63
2023/10/01 13:37:42;;;;;;;16.70;4.10;;;24.30;85.40;;;;;;5025019;28;20196;-63
2023/10/01 14:10:05;;;;;;;16.50;4.60;;;23.80;81.70;;;;;;5023166;28;20979;-63
2023/10/01 14:15:21;;;;;;;20.83;4.43;;;23.50;81.10;;;;;;5016163;28;20607;-63
2023/10/01 14:17:57;;;;;;;10.00;4.43;;;23.70;81.10;;;;;;5019594;28;20496;-63
2023/10/01 14:23:30;;;;;;;9.10;3.90;;;23.70;80.10;;;;;;5006096;28;20433;-63
2023/10/01 14:25:59;;;;;;;7.57;3.37;;;23.60;80.00;;;;;;5017236;28;20494;-63
2023/10/01 14:28:28;;;;;;;10.23;4.10;;;23.70;80.30;;;;;;5012232;28;20497;-63
2023/10/01 14:31:03;;;;;;;9.60;3.23;;;23.80;78.80;;;;;;5020307;28;20426;-63
2023/10/01 14:33:29;;;;;;;10.00;4.57;;;23.70;77.80;;;;;;5011915;28;20774;-63
2023/10/01 14:36:02;;;;;;;10.27;4.20;;;23.70;74.10;;;;;;5021291;28;20464;-63
2023/10/01 14:38:37;;;;;;;9.10;3.37;;;23.80;76.00;;;;;;5011847;28;20513;-63